In Rescue
 
Open Full Screen Window  High Contrast Mode
Wind Gusting 18 knots
13
January 24, 2020 9:43 PM EST
Present Weather: Light Snow
Weather Information
Wind Direction
  090 °
Wind Speed
  13 kt (15 mph)
Wind Gust
  18 kt (21 mph)
Altimeter
29.89 in
Visibility
10 SM
Temperature
01° C
34° F
Dewpoint
-01° C
30° F
Humidity
87%
Sky Condition
Overcast @ 4,400 ft
Broken @ 2,900 ft
Scattered @ 2,300 ft
MVFR

METAR KSJX 250243Z AUTO 09013G18KT 10SM -SN SCT023 BKN029 OVC044 01/M01 A2989 RMK AO2 T00081006

FAA Disclaimer: The data displayed is for advisory purposes only and is not to be used for flight planning or operations.